New Manchester, West Virginia
Current Conditions -  °F | °C
As of 10:51 PM on Thursday 27 Nov 2014 (Local Time) from KPIT Reporting Station
Overcast Overcast  
Wind Chill: 19°   Ceiling: 2000
Heat Index: 29°   Visibility: 10mi
Dew Point: 24°   Wind: 13mph
Humidity: 82%   Direction: 270°W
Pressure: 30.2"   Gusts: NA
Location:  40.53°N, 80.58°W
Report Text: KPIT 280351Z 27011KT 10SM BKN020 BKN027 OVC100 M02/M04 A3020 RMK AO2 SLP246 T10171044
Loading
Personal Weather Stations






























Interactive Weather Map New forecast layout! Learn more

10-Day Weather Forecast

Advertisements
Track Severe Weather on mobile